| Place | Name | Time | Raw score | Score |
|---|---|---|---|---|
| 1 | Terrapin | 1:04.04 | 1,000 | 261 |
| 2 | -DarkLlama- | 1:04.17 | 900 | 235 |
| 3 | Waonder | 1:04.93 | 859 | 224 |
| 4 | Ferreus | 1:05.14 | 827 | 216 |
| 5 | XiQu3sT | 1:07.68 | 800 | 209 |
| 6 | Jay2a | 1:09.36 | 777 | 203 |
| 7 | KnightBane | 1:10.01 | 756 | 197 |
| 8 | Brionac | 1:11.40 | 736 | 192 |
| 9 | IllKIllU | 1:11.84 | 718 | 188 |
| 10 | Kenaz | 1:12.32 | 700 | 183 |
| 11 | Gallian Abstract Algebra 9th Ed. | 1:17.24 | 684 | 179 |
| 12 | Thermos | 1:21.63 | 669 | 175 |
| 13 | Ohnoitsmangofett | 1:22.66 | 654 | 171 |
| 14 | gingerette95 | 1:23.85 | 640 | 167 |
| 15 | Draygone | 1:24.72 | 626 | 163 |
| 16 | NicholasKB19 | 1:25.45 | 613 | 160 |
| 17 | Sidewinder Fang | 1:26.54 | 600 | 157 |
| 18 | MCrekna1 | 1:27.75 | 588 | 154 |
| 19 | jason | 1:28.49 | 576 | 150 |
| 20 | Azure Zakura | 1:28.66 | 565 | 148 |
| 21 | Weird Pumpkin | 1:28.74 | 553 | 144 |
| 22 | PinesOfChaos | 1:29.23 | 542 | 142 |
| 23 | RaiderZulu | 1:29.52 | 531 | 139 |
| 24 | FluffyTheZombii | 1:31.35 | 521 | 136 |
| 25 | khrisround2 | 1:31.71 | 511 | 133 |
| 26 | Rayder | 1:31.74 | 500 | 131 |
| 27 | Chase | 1:33.69 | 491 | 128 |
| 28 | Cody | 1:33.91 | 481 | 126 |
| 29 | i0nTempest | 1:34.25 | 471 | 123 |
| 30 | pigpenguin | 1:35.25 | 462 | 121 |
| 31 | A Moldy Orange | 1:36.67 | 453 | 118 |
| 32 | Xandrak | 1:37.16 | 444 | 116 |
| 33 | Tribow | 1:37.21 | 435 | 114 |
| 34 | Iris | 1:38.36 | 426 | 111 |
| 35 | Luxora | 1:39.27 | 417 | 109 |
| 36 | Predatory_Balloon | 1:41.27 | 409 | 107 |
| 37 | Xela | 1:41.82 | 400 | 104 |
| 38 | baakstaff | 1:42.47 | 392 | 102 |
| 39 | Spiffy | 1:49.66 | 384 | 100 |
| 40 | exterminator2100 | 1:51.35 | 376 | 98 |
| 41 | Paparazzi | 1:52.54 | 368 | 96 |
| 42 | Jacsn | 1:55.69 | 360 | 94 |
| 43 | Mathias | 2:03.13 | 352 | 92 |
| 44 | Dreigo | 2:10.26 | 345 | 90 |
| 45 | Nico | 2:13.50 | 337 | 88 |
| 46 | Zany | 2:18.04 | 330 | 86 |
| 47 | Hayden | 2:18.12 | 322 | 84 |
| 48 | slug ʕ●.●ʔ | 2:18.34 | 315 | 82 |
| 49 | G9 | 2:18.36 | 308 | 80 |
| 50 | kriz_chan | 2:18.60 | 300 | 78 |
| 51 | ReallyDumbFox | 2:18.61 | 293 | 77 |
| 52 | M500 | 2:19.24 | 286 | 75 |
| 53 | Sayrix | 2:19.40 | 279 | 73 |
| 53 | Pelerin | 2:19.40 | 279 | 73 |
| 55 | Flaminglump | 2:20.04 | 266 | 69 |
| 55 | Lol Bengals | 2:20.04 | 266 | 69 |
| 57 | Gazebo935 | 2:20.09 | 252 | 66 |
| 58 | Freud | 2:20.10 | 246 | 64 |
| 59 | Thaumic | 2:20.17 | 239 | 62 |
| 60 | Cptnbean | 2:20.34 | 232 | 61 |
| 61 | Other XIX | 2:20.42 | 226 | 59 |
| 62 | uydurmatik | 2:20.44 | 219 | 57 |
| 63 | Cancer Liquid | 2:20.45 | 213 | 56 |
| 64 | Twister | 2:20.76 | 207 | 54 |
| 65 | DefenderOfHyrule | 2:21.03 | 200 | 52 |
| 66 | Bogs of War | 2:21.12 | 194 | 51 |
| 67 | Gray. | 2:21.16 | 188 | 49 |
| 68 | Гвоздь | 2:21.19 | 182 | 48 |
| 69 | Croquet Flamingo | 2:21.24 | 176 | 46 |
| 70 | LeFluffySquirrel | 2:21.56 | 170 | 44 |
| 71 | Keiyo | 2:21.68 | 164 | 43 |
| 72 | DROCHEPOLK | 2:21.73 | 158 | 41 |
| 72 | A very silly man indeed | 2:21.73 | 158 | 41 |
| 74 | Woody | 2:21.79 | 146 | 38 |
| 75 | Kinix | 2:21.80 | 140 | 37 |
| 76 | e⁻ | 2:21.83 | 134 | 35 |
| 77 | Eagl3 | 2:21.84 | 129 | 34 |
| 78 | ★ ADDON ★ | 2:21.88 | 123 | 32 |
| 79 | Agent-Cryspy | 2:21.95 | 117 | 31 |
| 80 | Zenoguard | 2:21.99 | 112 | 29 |
| 81 | Aiko | 2:22.01 | 106 | 28 |
| 82 | But we're both girls! | 2:22.04 | 100 | 26 |
| 83 | SincematicDisaster | 2:22.16 | 95 | 25 |
| 84 | Minecraft-pro | 2:22.17 | 89 | 23 |
| 85 | ToasterUwU | 2:22.22 | 84 | 22 |
| 86 | The Unusual Suspect | 2:22.27 | 79 | 21 |
| 86 | matheus paiva | 2:22.27 | 79 | 21 |
| 88 | SlowScan | 2:22.29 | 68 | 18 |
| 89 | EndlessGaming | 2:22.30 | 62 | 16 |
| 90 | Quirked-up White Boy | 2:22.46 | 57 | 15 |
| 91 | Curious Fish | 2:22.51 | 52 | 14 |
| 92 | LobaDK | 2:22.59 | 47 | 12 |
| 93 | Nyfo | 2:22.62 | 41 | 11 |
| 94 | Birb | 2:22.71 | 36 | 9 |
| 94 | Minhbo | 2:22.71 | 36 | 9 |
| 96 | iHaveAwfulIdeas | 2:22.74 | 26 | 7 |
| 97 | dan7999 | 2:22.79 | 21 | 5 |
| 98 | Void Concept | 2:22.81 | 16 | 4 |
| 99 | Joan6694 | 2:22.90 | 11 | 3 |
| 100 | Blahaj Blast | 2:22.95 | 6 | 2 |
| 100 | Dorphan | 2:22.95 | 6 | 2 |
| 102 | Naoroji | 2:23.00 | 0 | 0 |
| 103 | TheMelonGod | 2:23.03 | 0 | 0 |
| 104 | Azure | 2:23.05 | 0 | 0 |
| 105 | Dislin | 2:23.20 | 0 | 0 |
| 106 | NoteHeart TF R U DOIN | 2:23.22 | 0 | 0 |
| 107 | PathToV1ctory | 2:23.30 | 0 | 0 |
| 107 | jprtbr | 2:23.30 | 0 | 0 |
| 109 | CodedCrow | 2:23.39 | 0 | 0 |
| 110 | the Bear of the Web | 2:23.40 | 0 | 0 |
| 111 | Gyodesis | 2:23.45 | 0 | 0 |
| 112 | flo | 2:23.47 | 0 | 0 |
| 113 | Rombommind | 2:23.56 | 0 | 0 |
| 114 | The Blue Fox | 2:23.62 | 0 | 0 |
| 115 | BlacKat | 2:23.69 | 0 | 0 |
| 115 | concil | 2:23.69 | 0 | 0 |
| 117 | GLUBBA | 2:23.82 | 0 | 0 |
| 118 | Tex | 2:23.87 | 0 | 0 |
| 119 | Rhetorical Question | 2:23.88 | 0 | 0 |
| 120 | Old Bastard | 2:23.90 | 0 | 0 |
| 121 | Ikfish | 2:23.99 | 0 | 0 |
| 122 | TheEvilMidnightBomber | 2:24.04 | 0 | 0 |
| 123 | imxRaven | 2:24.05 | 0 | 0 |
| 123 | Western Ice Noodle | 2:24.05 | 0 | 0 |
| 125 | Artifact | 2:24.12 | 0 | 0 |
| 126 | xool | 2:24.14 | 0 | 0 |
| 127 | ItsMarcus | 2:24.28 | 0 | 0 |
| 128 | Da Doom Man | 2:24.35 | 0 | 0 |
| 129 | -≺Zinc≻- | 2:24.42 | 0 | 0 |
| 130 | Haunted Pleb | 2:24.49 | 0 | 0 |
| 131 | Californ1a | 2:24.54 | 0 | 0 |
| 132 | Ramirez | 2:24.65 | 0 | 0 |
| 133 | Aotia | Qubic | 2:24.71 | 0 | 0 |
| 134 | Vynll | 2:24.77 | 0 | 0 |
| 135 | Defiance_LLK | 2:25.15 | 0 | 0 |
| 136 | delfiler | 2:25.17 | 0 | 0 |
| 137 | PowerMeep | 2:25.24 | 0 | 0 |
| 138 | Ultor | 2:25.25 | 0 | 0 |
| 139 | JerryDandridge | 2:25.30 | 0 | 0 |
| 140 | gusforester | 2:25.38 | 0 | 0 |
| 141 | Xyvine | 2:25.48 | 0 | 0 |
| 142 | CyberNova | 2:25.51 | 0 | 0 |
| 143 | Earthnuker | 2:25.62 | 0 | 0 |
| 144 | cheesymantisfondue | 2:25.70 | 0 | 0 |
| 145 | Jayturbo8510 | 2:25.86 | 0 | 0 |
| 146 | Gray | 2:25.88 | 0 | 0 |
| 147 | lefor0416 | 2:25.90 | 0 | 0 |
| 148 | Viridian | 2:25.96 | 0 | 0 |
| 149 | Pompous Whale | 2:26.01 | 0 | 0 |
| 150 | CuddleStrike | 2:26.02 | 0 | 0 |
| 151 | Lliane | 2:26.08 | 0 | 0 |
| 151 | Zero_Antlax | 2:26.08 | 0 | 0 |
| 153 | Tim From HR | 2:26.14 | 0 | 0 |
| 154 | CS | 2:26.15 | 0 | 0 |
| 155 | Drix | 2:26.17 | 0 | 0 |
| 156 | Fernan | 2:26.18 | 0 | 0 |
| 157 | Tilin | 2:26.21 | 0 | 0 |
| 158 | Latapi | 2:26.23 | 0 | 0 |
| 159 | Henry_Hunter | 2:26.27 | 0 | 0 |
| 160 | Rusty | 2:26.30 | 0 | 0 |
| 161 | Tem | 2:26.41 | 0 | 0 |
| 162 | FreeFull | 2:26.53 | 0 | 0 |
| 162 | Host | 2:26.53 | 0 | 0 |
| 164 | Backgrounds' | 2:26.55 | 0 | 0 |
| 165 | Mr. Bird | 2:26.59 | 0 | 0 |
| 166 | Overlord | 2:26.61 | 0 | 0 |
| 167 | ★ Miriam ☆ | 2:26.66 | 0 | 0 |
| 168 | IlLumierelI | 2:26.77 | 0 | 0 |
| 169 | loopysausage | 2:26.78 | 0 | 0 |
| 170 | Plasmawario | 2:26.80 | 0 | 0 |
| 171 | Jutkutus | 2:26.81 | 0 | 0 |
| 172 | KWP | 2:26.99 | 0 | 0 |
| 173 | Haku | 2:27.06 | 0 | 0 |
| 174 | Greenfire DX | 2:27.09 | 0 | 0 |
| 175 | Grev "The Editor" | 2:27.10 | 0 | 0 |
| 176 | galactic depression | 2:27.12 | 0 | 0 |
| 177 | ash | 2:27.14 | 0 | 0 |
| 178 | Meda | 2:27.16 | 0 | 0 |
| 179 | Crimson Blood | 2:27.20 | 0 | 0 |
| 180 | elbrodini | 2:27.21 | 0 | 0 |
| 181 | Shady Inktail | 2:27.34 | 0 | 0 |
| 182 | Sébastien Lecornu II | 2:27.35 | 0 | 0 |
| 182 | Ion | 2:27.35 | 0 | 0 |
| 184 | Delykos | 2:27.36 | 0 | 0 |
| 185 | EnchantedRuffia144 | 2:27.65 | 0 | 0 |
| 186 | KABOOSE05 | 2:27.66 | 0 | 0 |
| 187 | marius_redandblue | 2:27.68 | 0 | 0 |
| 188 | ErzoopaRTR | 2:27.75 | 0 | 0 |
| 189 | Krull | 2:27.96 | 0 | 0 |
| 190 | Raxus | 2:28.10 | 0 | 0 |
| 191 | Canomi | 2:28.16 | 0 | 0 |
| 192 | GekoKid | 2:28.17 | 0 | 0 |
| 193 | danny1234331 | 2:28.22 | 0 | 0 |
| 194 | Rob_bie_n_Blair | 2:28.29 | 0 | 0 |
| 195 | RUDrew | 2:28.31 | 0 | 0 |
| 196 | Hijacker02 | 2:28.37 | 0 | 0 |
| 197 | Opprop | 2:28.39 | 0 | 0 |
| 197 | sparx041 | 2:28.39 | 0 | 0 |
| 199 | TheEPROM9 LaTeX | 2:28.43 | 0 | 0 |
| 200 | Big Bootiecoot | 2:28.44 | 0 | 0 |
| 201 | SPECTRUM_EXCALIBUR | 2:28.48 | 0 | 0 |
| 202 | Noah | 2:28.50 | 0 | 0 |
| 203 | JacquetheRipper | 2:28.52 | 0 | 0 |
| 204 | Kaliphear | 2:28.62 | 0 | 0 |
| 205 | friendly spycrab | 2:28.67 | 0 | 0 |
| 206 | vis | 2:28.74 | 0 | 0 |
| 206 | Bridge | 2:28.74 | 0 | 0 |
| 208 | Phimeek | 2:28.76 | 0 | 0 |
| 208 | WarmanCD | 2:28.76 | 0 | 0 |
| 210 | Wourder | 2:28.98 | 0 | 0 |
| 211 | Pan Nikt | 2:29.22 | 0 | 0 |
| 212 | shy | 2:29.24 | 0 | 0 |
| 212 | kivito | 2:29.24 | 0 | 0 |
| 214 | ewb123 | 2:29.25 | 0 | 0 |
| 215 | skuzzzy | 2:29.36 | 0 | 0 |
| 216 | Jappen | 2:29.45 | 0 | 0 |
| 217 | Super_Shadow57 | 2:29.46 | 0 | 0 |
| 218 | Ginormous Johnson | 2:29.48 | 0 | 0 |
| 219 | El_Nacho | 2:29.57 | 0 | 0 |
| 220 | Maus | 2:29.77 | 0 | 0 |
| 221 | KABOOM | 2:29.79 | 0 | 0 |
| 222 | Tenth | 2:29.93 | 0 | 0 |
| 223 | ^1WᴀʀᴘWɪʀᴇ | 2:29.99 | 0 | 0 |
| 224 | wzerd | 2:30.01 | 0 | 0 |
| 225 | Canadian | 2:30.04 | 0 | 0 |
| 226 | El Wiwi | 2:30.05 | 0 | 0 |
| 227 | Duhphlates | 2:30.09 | 0 | 0 |
| 228 | CrimsonBlade | 2:30.18 | 0 | 0 |
| 229 | NoBody | 2:30.20 | 0 | 0 |
| 230 | MyurrDurr | 2:30.28 | 0 | 0 |
| 231 | Natalia._.Winters | 2:30.30 | 0 | 0 |
| 232 | King.Tony | 2:30.31 | 0 | 0 |
| 233 | Caprice | 2:30.33 | 0 | 0 |
| 233 | nightclubpositive | 2:30.33 | 0 | 0 |
| 235 | nrpsSword0 | 2:30.34 | 0 | 0 |
| 236 | Kalm | 2:30.43 | 0 | 0 |
| 237 | Grimmy | 2:30.44 | 0 | 0 |
| 238 | Sniggles | 2:30.48 | 0 | 0 |
| 239 | Bullet074 | 2:30.52 | 0 | 0 |
| 240 | Foundation 8m x 2m | 2:30.57 | 0 | 0 |
| 241 | Shred VII | 2:30.71 | 0 | 0 |
| 241 | JayBoneJay | 2:30.71 | 0 | 0 |
| 243 | Inzarin | 2:30.76 | 0 | 0 |
| 243 | Rip | 2:30.76 | 0 | 0 |
| 245 | Spaceburger | 2:30.81 | 0 | 0 |
| 246 | Space Rabbit | 2:30.86 | 0 | 0 |
| 247 | Laco | 2:30.89 | 0 | 0 |
| 248 | marf | 2:30.92 | 0 | 0 |
| 249 | CyclopsDragon | 2:30.93 | 0 | 0 |
| 250 | Macinteuch Plus | 2:30.95 | 0 | 0 |
| 250 | speed | 2:30.95 | 0 | 0 |
| 252 | Plushsealy | 2:30.97 | 0 | 0 |
| 253 | CableBox64 | 2:30.99 | 0 | 0 |
| 254 | Epsilon_Knight | 2:31.00 | 0 | 0 |
| 255 | Chaos Titan | 2:31.01 | 0 | 0 |
| 256 | Cygnus | 2:31.19 | 0 | 0 |
| 256 | MrUnbecoming | 2:31.19 | 0 | 0 |
| 258 | Azhidaahaka | 2:31.27 | 0 | 0 |
| 259 | Luminous | 2:31.28 | 0 | 0 |
| 260 | [deleted] | 2:31.31 | 0 | 0 |
| 261 | SnowyAzukie | 2:31.39 | 0 | 0 |
| 262 | Hotride | 2:31.40 | 0 | 0 |
| 263 | Ashton_bro | 2:31.44 | 0 | 0 |
| 264 | Extreme Pajamas | 2:31.85 | 0 | 0 |
| 265 | Nom3t | 2:31.87 | 0 | 0 |
| 266 | TFProtoform157 | 2:31.92 | 0 | 0 |
| 267 | Greenghost | 2:32.00 | 0 | 0 |
| 267 | zanity | 2:32.00 | 0 | 0 |
| 269 | rbrules | 2:32.11 | 0 | 0 |
| 270 | iolyt | 2:32.15 | 0 | 0 |
| 271 | Drizza | 2:32.18 | 0 | 0 |
| 272 | Ellioty | 2:32.19 | 0 | 0 |
| 273 | Gnarrang | 2:32.24 | 0 | 0 |
| 274 | Pepino | 2:32.27 | 0 | 0 |
| 275 | Meldiron | 2:32.32 | 0 | 0 |
| 276 | Artum | 2:32.38 | 0 | 0 |
| 277 | Spearmint | 2:32.39 | 0 | 0 |
| 278 | Wipeout! | 2:32.41 | 0 | 0 |
| 279 | Shook | 2:32.47 | 0 | 0 |
| 280 | Eshael | 2:32.52 | 0 | 0 |
| 281 | 🌪Dashie010203🌪 | 2:32.81 | 0 | 0 |
| 282 | Alex97r | 2:32.82 | 0 | 0 |
| 283 | Alrunes | 2:32.83 | 0 | 0 |
| 284 | Kincaid | 2:32.91 | 0 | 0 |
| 285 | SkyCaptain502 | 2:32.92 | 0 | 0 |
| 286 | Clairity | 2:33.04 | 0 | 0 |
| 287 | DasGerippe | 2:33.05 | 0 | 0 |
| 288 | Macblur2 | 2:33.07 | 0 | 0 |
| 289 | Neko14789 | 2:33.13 | 0 | 0 |
| 290 | RE-L | 2:33.14 | 0 | 0 |
| 291 | EdgeMiles | 2:33.16 | 0 | 0 |
| 292 | Picaxe45 | 2:33.29 | 0 | 0 |
| 293 | Thr | 2:33.37 | 0 | 0 |
| 294 | Edragon | 2:33.57 | 0 | 0 |
| 295 | Ahhrealpeople | 2:33.58 | 0 | 0 |
| 295 | BoroTheOdd | 2:33.58 | 0 | 0 |
| 297 | Zerkia | 2:33.77 | 0 | 0 |
| 298 | Sambammers | 2:33.78 | 0 | 0 |
| 299 | RetaliationGuy YT | 2:33.89 | 0 | 0 |
| 300 | MP X10L | 2:33.91 | 0 | 0 |
| 301 | Kukan | 2:33.96 | 0 | 0 |
| 302 | Sylveen | 2:34.13 | 0 | 0 |
| 302 | Diabetis4life | 2:34.13 | 0 | 0 |
| 304 | ✱ Ale | 2:34.16 | 0 | 0 |
| 305 | pink | 2:34.19 | 0 | 0 |
| 306 | itsukarine | 2:34.33 | 0 | 0 |
| 307 | TP-N.co PC-118 B-10001110101 | 2:34.34 | 0 | 0 |
| 308 | Djidane | 2:34.35 | 0 | 0 |
| 309 | 〔Es〕 | 2:34.92 | 0 | 0 |
| 310 | LOLO FAK | 2:34.94 | 0 | 0 |
| 311 | Samn | 2:35.01 | 0 | 0 |
| 311 | EonShark | 2:35.01 | 0 | 0 |
| 313 | BluntButters | 2:35.10 | 0 | 0 |
| 313 | Gunz | 2:35.10 | 0 | 0 |
| 315 | Dragon Z | 2:35.16 | 0 | 0 |
| 316 | Beets by Farmer Dre | 2:35.24 | 0 | 0 |
| 317 | toniqe53 | 2:35.33 | 0 | 0 |
| 318 | [deleted] | 2:35.35 | 0 | 0 |
| 319 | Simon Evo | 2:35.44 | 0 | 0 |
| 320 | Polosatik | 2:35.58 | 0 | 0 |
| 321 | samson13 | 2:35.63 | 0 | 0 |
| 322 | Wollkopf | 2:35.70 | 0 | 0 |
| 323 | PurpleSuede | 2:35.75 | 0 | 0 |
| 323 | CHAVERDE | 2:35.75 | 0 | 0 |
| 325 | Qioury | 2:35.91 | 0 | 0 |
| 326 | Silverfeelin | 2:35.93 | 0 | 0 |
| 327 | fzeroman | 2:36.00 | 0 | 0 |
| 328 | Gomorrha | 2:36.09 | 0 | 0 |
| 329 | Jimmy Gibbs | 2:36.10 | 0 | 0 |
| 330 | Sev | 2:36.14 | 0 | 0 |
| 331 | LittleKittyArtemis | 2:36.20 | 0 | 0 |
| 332 | Baranagu | 2:36.26 | 0 | 0 |
| 333 | Liningcorn9 | 2:36.59 | 0 | 0 |
| 334 | Skye | 2:36.66 | 0 | 0 |
| 335 | ElHombre86 | 2:36.70 | 0 | 0 |
| 335 | Running With Razors | 2:36.70 | 0 | 0 |
| 337 | Fire Claw | 2:36.76 | 0 | 0 |
| 338 | RickGoose | 2:36.81 | 0 | 0 |
| 339 | Dejesho | 2:36.96 | 0 | 0 |
| 340 | Nanohm The Protogen | 2:37.04 | 0 | 0 |
| 341 | Gloþ | 2:37.12 | 0 | 0 |
| 342 | Naikel [FR] | 2:37.35 | 0 | 0 |
| 343 | Gorgon FW-06 | 2:37.37 | 0 | 0 |
| 344 | ant | 2:37.38 | 0 | 0 |
| 345 | The Biggest [REDACTED] Ogre | 2:37.51 | 0 | 0 |
| 346 | Trigger | 2:37.55 | 0 | 0 |
| 347 | Blexyde | 2:37.61 | 0 | 0 |
| 348 | Mossy Shush | 2:37.71 | 0 | 0 |
| 349 | DrHughJasole | 2:37.90 | 0 | 0 |
| 350 | The Good Gaming Dragon | 2:37.93 | 0 | 0 |
| 351 | Wolfy Neah | 2:38.16 | 0 | 0 |
| 352 | BlazeHedgehog | 2:38.42 | 0 | 0 |
| 353 | nepvee | 2:38.47 | 0 | 0 |
| 354 | Empyrrean | 2:38.58 | 0 | 0 |
| 355 | phfphefph | 2:38.94 | 0 | 0 |
| 356 | capitan charlskrank | 2:38.96 | 0 | 0 |
| 357 | Megacrafter127 | 2:39.00 | 0 | 0 |
| 358 | krakentoa | 2:39.03 | 0 | 0 |
| 359 | slsk frk | 2:39.04 | 0 | 0 |
| 360 | Bijan | 2:39.07 | 0 | 0 |
| 361 | BK Trombley | 2:39.21 | 0 | 0 |
| 362 | SauronGamer | 2:39.27 | 0 | 0 |
| 363 | Rázzer | 2:39.28 | 0 | 0 |
| 364 | [C0r3] pteradak | 2:39.29 | 0 | 0 |
| 365 | Tiyenti | 2:39.53 | 0 | 0 |
| 365 | Ursoos | 2:39.53 | 0 | 0 |
| 367 | RenTide4 | 2:39.60 | 0 | 0 |
| 368 | Carrott | 2:39.67 | 0 | 0 |
| 369 | El Psy Cangroo | 2:39.79 | 0 | 0 |
| 370 | Nintony | 2:39.83 | 0 | 0 |
| 371 | Ditzy_Set | 2:39.86 | 0 | 0 |
| 372 | [deleted] | 2:39.91 | 0 | 0 |
| 373 | NetSlayer | 2:39.99 | 0 | 0 |
| 374 | Alexkurts | 2:40.05 | 0 | 0 |
| 375 | Vimto | 2:40.08 | 0 | 0 |
| 376 | Fiefio | 2:40.09 | 0 | 0 |
| 377 | Caradog | 2:40.16 | 0 | 0 |
| 378 | Stormtrooper | 2:40.19 | 0 | 0 |
| 379 | MAT D.R.⎛⎝≥⏝⏝≤⎠⎞ | 2:40.20 | 0 | 0 |
| 380 | ruteqube | 2:40.21 | 0 | 0 |
| 381 | lumox6 | 2:40.29 | 0 | 0 |
| 382 | GabEn | 2:40.31 | 0 | 0 |
| 382 | nakor[fr] | 2:40.31 | 0 | 0 |
| 384 | Arrav | 2:40.35 | 0 | 0 |
| 384 | levinv270 | 2:40.35 | 0 | 0 |
| 386 | Fyshokid | 2:40.36 | 0 | 0 |
| 387 | yinux_fr | 2:40.44 | 0 | 0 |
| 388 | Azem_of_Earth | 2:40.61 | 0 | 0 |
| 389 | Gilme | 2:40.62 | 0 | 0 |
| 390 | felipe.f.a | 2:40.69 | 0 | 0 |
| 391 | Satin | 2:40.83 | 0 | 0 |
| 392 | pipsparadise21 | 2:40.89 | 0 | 0 |
| 393 | ConKer X | 2:40.96 | 0 | 0 |
| 394 | OnyxLock | 2:41.05 | 0 | 0 |
| 395 | MarsDevastater | 2:41.12 | 0 | 0 |
| 396 | Enzyme Machine | 2:41.23 | 0 | 0 |
| 397 | nobfaic | 2:41.26 | 0 | 0 |
| 398 | Jezo | 2:41.27 | 0 | 0 |
| 399 | Zaz Bellum | 2:41.30 | 0 | 0 |
| 400 | Blank | 2:41.39 | 0 | 0 |
| 401 | Jarkon | 2:41.56 | 0 | 0 |
| 402 | Zector1114 | 2:41.74 | 0 | 0 |
| 403 | Crubo | 2:41.76 | 0 | 0 |
| 404 | guy | 2:41.88 | 0 | 0 |
| 405 | Jeats | 2:41.89 | 0 | 0 |
| 406 | LissomChunk | 2:41.97 | 0 | 0 |
| 407 | Grandma's Regrets | 2:41.98 | 0 | 0 |
| 408 | Kypar | 2:42.10 | 0 | 0 |
| 409 | allquiet | 2:42.13 | 0 | 0 |
| 410 | mokkli | 2:42.14 | 0 | 0 |
| 411 | HyperNova | 2:42.21 | 0 | 0 |
| 412 | PappaJohn'sOfficial | 2:42.26 | 0 | 0 |
| 413 | rz zombie | 2:42.42 | 0 | 0 |
| 414 | Chronos | 2:42.44 | 0 | 0 |
| 415 | Yorozuya | 2:42.52 | 0 | 0 |
| 416 | Kinroko | 2:42.55 | 0 | 0 |
| 417 | [DNF]Speedz101 | 2:42.61 | 0 | 0 |
| 418 | JohnCorby | 2:42.68 | 0 | 0 |
| 419 | DukeofLeet | 2:42.72 | 0 | 0 |
| 420 | Slicksand | 2:42.95 | 0 | 0 |
| 421 | Creepersrock24Gaming | 2:43.06 | 0 | 0 |
| 422 | FLUFYbluBUNYman | 2:43.30 | 0 | 0 |
| 423 | jmdajm7 | 2:43.32 | 0 | 0 |
| 424 | Impatotec | 2:43.42 | 0 | 0 |
| 425 | Gaaratoncul (Will) | 2:43.46 | 0 | 0 |
| 426 | FifteenBread | 2:43.61 | 0 | 0 |
| 427 | Shjohn | 2:43.82 | 0 | 0 |
| 428 | NOVA | 2:43.85 | 0 | 0 |
| 429 | Apollo | 2:44.19 | 0 | 0 |
| 430 | Iggulden | 2:44.23 | 0 | 0 |
| 431 | [deleted] | 2:44.24 | 0 | 0 |
| 432 | sevenofnone | 2:44.31 | 0 | 0 |
| 433 | ketikidistv | 2:44.52 | 0 | 0 |
| 434 | Numerousluke | 2:44.54 | 0 | 0 |
| 434 | Warriot | 2:44.54 | 0 | 0 |
| 436 | Sartha | 2:44.57 | 0 | 0 |
| 437 | Thoughtless | 2:44.59 | 0 | 0 |
| 438 | Toastmaster | 2:44.68 | 0 | 0 |
| 439 | Metastreumonic | 2:44.98 | 0 | 0 |
| 440 | Loune Fire | 2:45.13 | 0 | 0 |
| 441 | Underliinez | 2:45.99 | 0 | 0 |
| 442 | Teh№ [AMP] | 2:46.60 | 0 | 0 |
| 443 | r3 | 2:46.62 | 0 | 0 |
| 444 | Toki | 2:46.63 | 0 | 0 |
| 445 | Saverin | 2:46.83 | 0 | 0 |
| 446 | Quiet Kerb | 2:46.89 | 0 | 0 |
| 447 | LauncLaunc | 2:46.99 | 0 | 0 |
| 448 | sendthefish | 2:47.01 | 0 | 0 |
| 449 | Cinco | 2:47.61 | 0 | 0 |
| 450 | Kimmykix | 2:47.74 | 0 | 0 |
| 451 | Sniper Monkey | 2:47.83 | 0 | 0 |
| 452 | W.D. Gaster | 2:47.84 | 0 | 0 |
| 453 | Dante 🐬 | 2:48.11 | 0 | 0 |
| 454 | RL | 2:48.14 | 0 | 0 |
| 455 | SHARKFLUNKY | 2:48.29 | 0 | 0 |
| 455 | Burst_15 | 2:48.29 | 0 | 0 |
| 457 | Czechoslovakia BEDŘICH | 2:48.51 | 0 | 0 |
| 458 | Tesselode | 2:48.68 | 0 | 0 |
| 459 | Abnormal Cybran | 2:48.75 | 0 | 0 |
| 460 | Dante | 2:48.86 | 0 | 0 |
| 461 | Fires | 2:49.19 | 0 | 0 |
| 462 | Pixelbo | 2:49.50 | 0 | 0 |
| 463 | Big Chungus2010 | 2:49.56 | 0 | 0 |
| 464 | Mythic | 2:49.59 | 0 | 0 |
| 465 | Shroom | 2:49.78 | 0 | 0 |
| 465 | Vencer_FRC | 2:49.78 | 0 | 0 |
| 467 | 1Hp♰ | 2:49.86 | 0 | 0 |
| 468 | Joeshi | 2:50.00 | 0 | 0 |
| 469 | [Lard] Kriltch | 2:50.14 | 0 | 0 |
| 470 | Malibu Stacy | 2:50.17 | 0 | 0 |
| 471 | BennLivid | 2:50.20 | 0 | 0 |
| 472 | littletinyteeth | 2:50.33 | 0 | 0 |
| 473 | NIRV007 | 2:50.37 | 0 | 0 |
| 474 | GOOSE SATAN! | 2:50.38 | 0 | 0 |
| 475 | Mergrim | 2:50.44 | 0 | 0 |
| 475 | Indy1984 | 2:50.44 | 0 | 0 |
| 477 | Dracheron | 2:50.45 | 0 | 0 |
| 478 | Barnicle217 | 2:50.59 | 0 | 0 |
| 479 | FyreWall | 2:51.06 | 0 | 0 |
| 480 | KLABOEM | 2:51.08 | 0 | 0 |
| 481 | echoesguideme | 2:51.12 | 0 | 0 |
| 482 | Lunch | 2:51.23 | 0 | 0 |
| 483 | Blind Blink | 2:51.25 | 0 | 0 |
| 484 | Camellya #1 Fan | 2:51.32 | 0 | 0 |
| 485 | Djdookeynut | 2:51.35 | 0 | 0 |
| 486 | onyxglow | 2:51.53 | 0 | 0 |
| 487 | IHaveBannedAids | 2:51.60 | 0 | 0 |
| 488 | Jet2Holiday | 2:52.06 | 0 | 0 |
| 489 | a&b | 2:52.17 | 0 | 0 |
| 490 | Adm | 2:52.21 | 0 | 0 |
| 491 | feriferoso | 2:52.33 | 0 | 0 |
| 492 | pox | 2:52.41 | 0 | 0 |
| 493 | Uno | 2:52.46 | 0 | 0 |
| 494 | Human. | 2:52.48 | 0 | 0 |
| 494 | Razor_ZXM | 2:52.48 | 0 | 0 |
| 496 | Neneko | 2:52.64 | 0 | 0 |
| 497 | OnyonSwomp | 2:52.93 | 0 | 0 |
| 498 | C4tch | 2:52.98 | 0 | 0 |
| 499 | EnderKill98 | 2:53.04 | 0 | 0 |
| 500 | Najred | 2:53.08 | 0 | 0 |
| 501 | 25 минут кайфа | 2:53.20 | 0 | 0 |
| 502 | BEZDARZ | 2:53.26 | 0 | 0 |
| 503 | Apocalyptic Bunny | 2:53.30 | 0 | 0 |
| 504 | SHAaD_Sicod | 2:53.44 | 0 | 0 |
| 505 | Caffeinated Cow | 2:53.52 | 0 | 0 |
| 506 | jetknife | 2:53.55 | 0 | 0 |
| 507 | Kotz | 2:53.62 | 0 | 0 |
| 508 | bread | 2:53.66 | 0 | 0 |
| 509 | throbbing_fish | 2:53.70 | 0 | 0 |
| 510 | Giant | 2:53.83 | 0 | 0 |
| 511 | Mr. Doggy | 2:54.31 | 0 | 0 |
| 511 | Benji | 2:54.31 | 0 | 0 |
| 513 | worker bee mentality | 2:54.59 | 0 | 0 |
| 514 | Twaddle | 2:54.62 | 0 | 0 |
| 515 | Zenixic | 2:54.72 | 0 | 0 |
| 516 | Raiden925 | 2:54.73 | 0 | 0 |
| 517 | 𝔼ℝ𝔸ℤ𝔼ℝ | 2:54.82 | 0 | 0 |
| 518 | Uppity Gryphon | 2:54.87 | 0 | 0 |
| 519 | Synchronize | 2:54.93 | 0 | 0 |
| 520 | TheBoredguyyy | 2:54.97 | 0 | 0 |
| 521 | Hirochi | 2:55.05 | 0 | 0 |
| 522 | majesticspace | 2:55.18 | 0 | 0 |
| 523 | Lud | Forest | 2:55.30 | 0 | 0 |
| 524 | doomsday device | 2:55.34 | 0 | 0 |
| 525 | Treeka | 2:55.36 | 0 | 0 |
| 526 | Alex | 2:55.56 | 0 | 0 |
| 527 | starhorder | 2:55.68 | 0 | 0 |
| 528 | Kabelsalat | 2:55.77 | 0 | 0 |
| 529 | VC42 | 2:55.96 | 0 | 0 |
| 530 | tigerchef123 | 2:56.00 | 0 | 0 |
| 531 | Cunτstantin | 2:56.06 | 0 | 0 |
| 532 | Sunchipp Games | 2:56.18 | 0 | 0 |
| 533 | Ozymandias | 2:56.44 | 0 | 0 |
| 533 | cantadhastalospatos | 2:56.44 | 0 | 0 |
| 535 | Commander Victory | 2:56.50 | 0 | 0 |
| 536 | ShadowWolf | 2:56.76 | 0 | 0 |
| 536 | Symon | 2:56.76 | 0 | 0 |
| 538 | Shadow34 | 2:56.91 | 0 | 0 |
| 539 | Andy95 | 2:56.94 | 0 | 0 |
| 540 | Rainy (^_^*) | 2:56.99 | 0 | 0 |
| 541 | WorkingChickenMH | 2:57.15 | 0 | 0 |
| 542 | Lancer | 2:57.25 | 0 | 0 |
| 543 | Sael_04 | 2:57.38 | 0 | 0 |
| 544 | mos | 2:57.53 | 0 | 0 |
| 545 | Roggee | 2:57.66 | 0 | 0 |
| 546 | Nephuxs | 2:57.67 | 0 | 0 |
| 547 | Your Local Jordan | 2:57.72 | 0 | 0 |
| 548 | Jacky | 2:58.09 | 0 | 0 |
| 548 | macononi | 2:58.09 | 0 | 0 |
| 550 | SolSkyline | 2:58.70 | 0 | 0 |
| 550 | [RC] | 2:58.70 | 0 | 0 |
| 552 | BlueLighted | 2:58.76 | 0 | 0 |
| 553 | cmrgreenjeans | 2:59.07 | 0 | 0 |
| 554 | Ame | 2:59.09 | 0 | 0 |
| 555 | Todd Bonzalez | 2:59.13 | 0 | 0 |
| 556 | NIIVAI | 2:59.70 | 0 | 0 |
| 557 | Yak-Yo! | 2:59.82 | 0 | 0 |
| 558 | Dragnar The Meme God | 2:59.83 | 0 | 0 |
| 559 | HJQLF | 2:59.85 | 0 | 0 |
| 560 | [NR] Miyu012 | 3:00.00 | 0 | 0 |
| 561 | PineFreshGuy | 3:00.37 | 0 | 0 |
| 562 | crazyqueso06 | 3:00.47 | 0 | 0 |
| 563 | sugoiangela | 3:01.07 | 0 | 0 |
| 564 | Damionf | 3:01.18 | 0 | 0 |
| 565 | LadyL | 3:01.22 | 0 | 0 |
| 566 | Mikouille | 3:01.32 | 0 | 0 |
| 567 | Pteroborne | 3:01.42 | 0 | 0 |
| 568 | byanymeansnecessary | 3:01.51 | 0 | 0 |
| 569 | #KallorDidNothingWrong | 3:01.53 | 0 | 0 |
| 570 | CrashZxS | 3:01.62 | 0 | 0 |
| 571 | Loot Hunter | 3:01.70 | 0 | 0 |
| 572 | GetEmOtterHere | 3:01.75 | 0 | 0 |
| 573 | JDthe3rd | 3:01.92 | 0 | 0 |
| 574 | MRfester21 | 3:01.95 | 0 | 0 |
| 575 | Amadeus | 3:02.05 | 0 | 0 |
| 576 | DHN | 3:02.12 | 0 | 0 |
| 577 | Ultimate Level 100 Vegan Wizard | 3:02.17 | 0 | 0 |
| 577 | HeliosMagi | 3:02.17 | 0 | 0 |
| 579 | Rodzynek | 3:02.27 | 0 | 0 |
| 580 | Sunburnt Cyclops | 3:02.40 | 0 | 0 |
| 581 | Kobura! | 3:02.52 | 0 | 0 |
| 582 | meziter260 | 3:02.70 | 0 | 0 |
| 583 | Zane Wuffy | 3:02.72 | 0 | 0 |
| 584 | Sommelier de Doujin | 3:02.92 | 0 | 0 |
| 585 | Combustaoki | 3:02.97 | 0 | 0 |
| 586 | Solar Field | 3:03.49 | 0 | 0 |
| 587 | Cookie Dealer | 3:03.54 | 0 | 0 |
| 588 | flaniert gerne | 3:03.59 | 0 | 0 |
| 589 | Sibsen | 3:04.20 | 0 | 0 |
| 590 | Geordi La Forge | 3:04.29 | 0 | 0 |
| 591 | Mr Elusive | 3:04.38 | 0 | 0 |
| 592 | Cobaltfox41 | 3:04.45 | 0 | 0 |
| 593 | Teshi | 3:04.53 | 0 | 0 |
| 594 | Asinay | 3:05.01 | 0 | 0 |
| 595 | Sappytron | 3:05.48 | 0 | 0 |
| 596 | S.D Gabo Tachyon | 3:05.61 | 0 | 0 |
| 597 | Ironman_2099 | 3:05.73 | 0 | 0 |
| 598 | O' The Iron E | 3:05.98 | 0 | 0 |
| 599 | Frozen Dino | 3:06.20 | 0 | 0 |
| 600 | Pomikii | 3:06.48 | 0 | 0 |
| 601 | akamikeb | 3:06.72 | 0 | 0 |
| 602 | garg | 3:06.75 | 0 | 0 |
| 603 | SirThunder4449 | 3:06.76 | 0 | 0 |
| 604 | NikoDaNeko | 3:07.02 | 0 | 0 |
| 605 | Mike4584 | 3:07.33 | 0 | 0 |
| 606 | Razgriez | 3:07.34 | 0 | 0 |
| 607 | Ultin00b | 3:07.48 | 0 | 0 |
| 608 | TheGrandWeeaboo | 3:07.50 | 0 | 0 |
| 609 | thebigbluesky | 3:07.72 | 0 | 0 |
| 610 | bundestrojaner | 3:07.88 | 0 | 0 |
| 611 | orangeboi000 | 3:08.05 | 0 | 0 |
| 612 | Skuzzles | 3:08.19 | 0 | 0 |
| 613 | NoobPlayerBR | 3:08.22 | 0 | 0 |
| 614 | Jack Attack | 3:08.68 | 0 | 0 |
| 615 | Darwinia | 3:08.88 | 0 | 0 |
| 616 | Amethyst | 3:09.21 | 0 | 0 |
| 617 | Agroman12 | 3:09.68 | 0 | 0 |
| 618 | JayKay | 3:09.76 | 0 | 0 |
| 619 | tsatsae | 3:09.98 | 0 | 0 |
| 620 | BrandonK-TN | 3:10.43 | 0 | 0 |
| 621 | _UNDE | 3:10.89 | 0 | 0 |
| 622 | Nuggetzrago | 3:11.36 | 0 | 0 |
| 623 | SlimShanks | 3:11.67 | 0 | 0 |
| 624 | Bistdocs | 3:11.82 | 0 | 0 |
| 625 | Sliyn | 3:11.92 | 0 | 0 |
| 626 | Skransow | 3:12.31 | 0 | 0 |
| 627 | WiteNite | 3:12.48 | 0 | 0 |
| 628 | fischpferd | 3:12.63 | 0 | 0 |
| 628 | George Redfield | 3:12.63 | 0 | 0 |
| 630 | sockpuppetkingdom | 3:13.13 | 0 | 0 |
| 631 | Osvoldon | 3:13.35 | 0 | 0 |
| 632 | Donnermax2 | 3:13.37 | 0 | 0 |
| 632 | TS_Mind_Swept | 3:13.37 | 0 | 0 |
| 634 | TheH | 3:13.42 | 0 | 0 |
| 635 | roborolfe | 3:14.30 | 0 | 0 |
| 636 | toofz | 3:14.79 | 0 | 0 |
| 637 | DioDio | 3:15.19 | 0 | 0 |
| 638 | RabbiT | 3:15.28 | 0 | 0 |
| 639 | WitchOnFire | 3:15.51 | 0 | 0 |
| 640 | Schleck | 3:15.66 | 0 | 0 |
| 641 | DobreBobre | 3:15.72 | 0 | 0 |
| 642 | Zombie | 3:15.76 | 0 | 0 |
| 643 | NyaNekoEngine | 3:15.91 | 0 | 0 |
| 644 | Agent Starlight | 3:16.00 | 0 | 0 |
| 645 | ahtnos | 3:16.77 | 0 | 0 |
| 646 | Hikariluiz | 3:16.80 | 0 | 0 |
| 647 | Jitsy | 3:17.01 | 0 | 0 |
| 648 | Brandedwolf | 3:17.10 | 0 | 0 |
| 649 | SparkyCrusader | 3:17.56 | 0 | 0 |
| 650 | Jarminx | 3:17.64 | 0 | 0 |
| 651 | Imjustcam | 3:17.93 | 0 | 0 |
| 652 | AyyLmeow | 3:18.26 | 0 | 0 |
| 653 | Draco | 3:18.91 | 0 | 0 |
| 654 | DevinShadowV | 3:19.14 | 0 | 0 |
| 655 | Tito | 3:19.31 | 0 | 0 |
| 656 | A.D.I.D.A.S. | 3:19.83 | 0 | 0 |
| 657 | gioele.bianchi | 3:19.84 | 0 | 0 |
| 658 | Captain.Kreed | 3:19.85 | 0 | 0 |
| 659 | Yldri | 3:19.90 | 0 | 0 |
| 660 | Duke Jukem | 3:20.44 | 0 | 0 |
| 661 | SpukiFubuki | 3:20.50 | 0 | 0 |
| 662 | Heliomachit | 3:20.52 | 0 | 0 |
| 663 | SilverRexy❤ | 3:20.56 | 0 | 0 |
| 664 | Zalky | 3:21.32 | 0 | 0 |
| 665 | LPNoNameGame | 3:21.71 | 0 | 0 |
| 666 | Roboraser | 3:21.85 | 0 | 0 |
| 667 | Astel | 3:22.43 | 0 | 0 |
| 668 | Loys Nuva | 3:23.12 | 0 | 0 |
| 669 | arkhayem | 3:23.35 | 0 | 0 |
| 670 | Sputnik | 3:23.49 | 0 | 0 |
| 671 | colt5656 | 3:23.52 | 0 | 0 |
| 672 | Sleve McDichael | 3:23.55 | 0 | 0 |
| 673 | ♠Spawn♤ | 3:23.63 | 0 | 0 |
| 674 | 54mm7 | 3:23.79 | 0 | 0 |
| 675 | Bers | 3:24.09 | 0 | 0 |
| 676 | Ty1122 | 3:25.72 | 0 | 0 |
| 677 | Zinja | 3:25.85 | 0 | 0 |
| 678 | xander | 3:25.97 | 0 | 0 |
| 679 | psychoblizzard | 3:26.11 | 0 | 0 |
| 680 | ~Morgsch~ | 3:26.59 | 0 | 0 |
| 681 | Mr. Moebius | 3:26.73 | 0 | 0 |
| 682 | crozak | 3:26.74 | 0 | 0 |
| 683 | madcapbone | 3:26.98 | 0 | 0 |
| 684 | Enso | 3:27.31 | 0 | 0 |
| 685 | Autósismós | 3:27.85 | 0 | 0 |
| 686 | oatmealcookie | 3:28.34 | 0 | 0 |
| 687 | horse girl | 3:28.43 | 0 | 0 |
| 688 | 『QPUNeptune』 | 3:28.46 | 0 | 0 |
| 689 | Hooligan | 3:28.53 | 0 | 0 |
| 690 | dreifachpunkt. | 3:28.58 | 0 | 0 |
| 691 | YoloMoth | 3:29.00 | 0 | 0 |
| 692 | Justin | 3:29.76 | 0 | 0 |
| 693 | Johnny_Matrix | 3:30.00 | 0 | 0 |
| 694 | Yakaze | 3:30.18 | 0 | 0 |
| 695 | Wesno | 3:30.73 | 0 | 0 |
| 696 | kittens | 3:30.74 | 0 | 0 |
| 697 | Uganda Knuckles | 3:30.80 | 0 | 0 |
| 698 | 문경왕개미 | 3:31.52 | 0 | 0 |
| 699 | Arthur | 3:31.53 | 0 | 0 |
| 700 | Bubwubster | 3:32.34 | 0 | 0 |
| 701 | Jake | 3:32.91 | 0 | 0 |
| 702 | That Gay Girl | 3:33.44 | 0 | 0 |
| 703 | McFolt | 3:33.97 | 0 | 0 |
| 704 | Uholyn | 3:34.31 | 0 | 0 |
| 705 | Spoofie | 3:34.55 | 0 | 0 |
| 706 | mike223 | 3:34.65 | 0 | 0 |
| 707 | Vexo | davidmc971 | 3:35.57 | 0 | 0 |
| 708 | fanehernandez53 | 3:35.81 | 0 | 0 |
| 709 | Terr4 | 3:35.99 | 0 | 0 |
| 710 | romeo | 3:36.06 | 0 | 0 |
| 711 | Kami | 3:36.34 | 0 | 0 |
| 712 | AsheIsLethargic | 3:36.80 | 0 | 0 |
| 713 | Zerith | 3:37.10 | 0 | 0 |
| 714 | egervicar | 3:37.26 | 0 | 0 |
| 715 | Greenclif | 3:37.54 | 0 | 0 |
| 716 | ExoVamp | 3:37.91 | 0 | 0 |
| 717 | Lee | 3:38.25 | 0 | 0 |
| 718 | Phaserlight | 3:38.35 | 0 | 0 |
| 719 | Mr Dry | 3:38.60 | 0 | 0 |
| 720 | king.bai64 | 3:39.51 | 0 | 0 |
| 721 | April_Angel | 3:39.82 | 0 | 0 |
| 722 | Juniper | 3:40.82 | 0 | 0 |
| 723 | Austin | 3:40.85 | 0 | 0 |
| 724 | vikliks | 3:40.99 | 0 | 0 |
| 725 | Makusu | 3:41.28 | 0 | 0 |
| 726 | Kozakjr | 3:41.36 | 0 | 0 |
| 727 | Highlord Starkiller | 3:43.16 | 0 | 0 |
| 728 | Bananbulance | 3:43.70 | 0 | 0 |
| 729 | Kalimbato | 3:44.58 | 0 | 0 |
| 730 | Riggs | 3:45.48 | 0 | 0 |
| 731 | rezzonating | 3:45.62 | 0 | 0 |
| 732 | tveh | 3:46.11 | 0 | 0 |
| 733 | OFFICERWBEAR | 3:46.41 | 0 | 0 |
| 734 | Rognar | 3:46.59 | 0 | 0 |
| 735 | saltykimchii | 3:47.31 | 0 | 0 |
| 736 | Mejartion | 3:47.96 | 0 | 0 |
| 737 | Orphan Lion | 3:49.30 | 0 | 0 |
| 738 | Herzn | 3:50.17 | 0 | 0 |
| 739 | CGAnims | 3:50.30 | 0 | 0 |
| 740 | PlΣXi | 3:51.56 | 0 | 0 |
| 741 | Skrall' | 3:51.70 | 0 | 0 |
| 742 | ♫Lego♫ | 3:53.12 | 0 | 0 |
| 743 | Husky_Salt | 3:54.99 | 0 | 0 |
| 744 | God of Darkness | 3:56.02 | 0 | 0 |
| 745 | Lupi | 3:56.14 | 0 | 0 |
| 746 | beanii | 3:57.97 | 0 | 0 |
| 747 | LockedForce | 3:59.21 | 0 | 0 |
| 748 | Yoshuga | 4:02.83 | 0 | 0 |
| 749 | lolpokey | 4:05.11 | 0 | 0 |
| 750 | Maru | 4:05.29 | 0 | 0 |
| 751 | Uranos | 4:05.56 | 0 | 0 |
| 751 | BlueFalcon55 | 4:05.56 | 0 | 0 |
| 753 | EL MEXICANO| | 4:05.64 | 0 | 0 |
| 754 | Hack Montblanc | 4:05.69 | 0 | 0 |
| 755 | TheIcyOne | 4:08.22 | 0 | 0 |
| 756 | Shytayko | 4:08.38 | 0 | 0 |
| 757 | Soul | 4:09.81 | 0 | 0 |
| 758 | autistic pringle | 4:10.14 | 0 | 0 |
| 759 | davislb2 | 4:10.68 | 0 | 0 |
| 760 | Teapot Possum | 4:11.27 | 0 | 0 |
| 761 | crimes.against.art | 4:12.06 | 0 | 0 |
| 762 | Kavi | 4:15.60 | 0 | 0 |
| 763 | Brendarth | 4:16.36 | 0 | 0 |
| 764 | Chig Bungus | 4:17.45 | 0 | 0 |
| 765 | jack.shearereverhart | 4:17.52 | 0 | 0 |
| 766 | Anerix (Paradox) Cormin Quanadol | 4:20.70 | 0 | 0 |
| 767 | Mousebite | 4:35.88 | 0 | 0 |
| 768 | A̶͓̓z̷͓̍ũ̴̩r̷͔͐e̴ | 4:38.46 | 0 | 0 |
| 769 | JokersBullet12 | 4:42.97 | 0 | 0 |
| 770 | キタ一一(゚∀゚)一一!! | 4:52.64 | 0 | 0 |
| 771 | Pedyped | 4:53.60 | 0 | 0 |
| 772 | Pedricolino | 5:01.70 | 0 | 0 |
| 773 | seatsea | 5:15.83 | 0 | 0 |
| 774 | Lore maker | 5:16.54 | 0 | 0 |
| 775 | so2be | 5:21.47 | 0 | 0 |
| 776 | brelar298 | 5:23.91 | 0 | 0 |
| 777 | RÄYH!!! | 5:28.86 | 0 | 0 |
| 778 | Nickerb | 5:36.47 | 0 | 0 |
| 779 | Shadiest | 5:38.09 | 0 | 0 |
| 780 | VI_fizz | 5:43.82 | 0 | 0 |
| 781 | R3FL3xger | 5:45.50 | 0 | 0 |
| 782 | DeathzoneDragon | 6:01.25 | 0 | 0 |
| 783 | Aлиcофaг | 6:25.18 | 0 | 0 |
| 784 | Jarek718 | 6:27.69 | 0 | 0 |
| 785 | Boydee | 6:38.25 | 0 | 0 |
| 786 | rilelyscastle | 6:44.27 | 0 | 0 |
| 787 | Wales | 7:13.23 | 0 | 0 |
HoldGrip